Detall de PIREP

Printer-friendly versionPDF version

[2015/04/12 12:15:00]
Flight IATA:CT3232
Pilot Number:016
Company ICAO:CAT
Aircraft Type:B738/F
PAX:108
Departing Airport: LEPA
Destination Airport: LEMD
Alternate Airport:LEBL
Online: VATSIM
Route:TURIA UN733 PRADO
Flight Level:F340
No Slew and time accel
No pause
Crash detect
Detect pilot in Cockpit between each 30 and 45 minutes
12:15 Zero fuel Weight: 118701 Lbs, Fuel Weight: 45943 Lbs
12:15 VATSIM:LEPA 121900Z 06006KT 030V090 CAVOK 15/11 Q1027 NOSIG
12:15 VATSIM:LEMD 121900Z 05003KT 020V080 CAVOK 18/07 Q1024 NOSIG
12:49 Parking Brakes off
12:55 Take-off
12:55 Take off Weight: 123125 Lbs
12:55 Wind: 051º @ 005 Knots Heading: 058º
12:55 POS N39º 32´ 53´´ E002º 44´ 46´´
12:55 Flaps:3 at 162 Knots
12:55 Gear Up: 166 Knots
12:56 Flaps:2 at 212 Knots
12:56 Flaps:1 at 232 Knots
12:57 Flaps:0 at 244 Knots
13:09 TOC
13:09 Fuel Weight: 8450 Lb
13:10 Wind:084º@038Knots Heading: 268º Ground Speed: 502 Knots Altitude 34383 ft
13:24 TOD
13:24 Fuel Weight: 7010 Lb
13:25 Wind:087º@028 Knots Heading: 301º Ground Speed: 463 Knots Altitude 32687 ft
13:37 Flaps:1 at 244 Knots
13:38 Flaps:2 at 228 Knots
13:39 Gear Down: 233 Knots
13:39 Flaps:3 at 233 Knots
13:40 Wind:051º@007 Knots Heading: 323º Ground Speed: 230 Knots Altitude 8008 ft
13:40 Flaps:4 at 202 Knots
13:40 Flaps:5 at 181 Knots
13:41 Flaps:6 at 169 Knots
13:41 Flaps:7 at 157 Knots
13:41 Flaps:8 at 150 Knots
13:42 TouchDown:Rate -324 ft/min Speed: 126 Knots
13:43 VATSIM:LEMD 122030Z 05004KT 010V100 CAVOK 16/06 Q1025 NOSIG
13:43 Land
13:43 Wind:038º@003 Knots
13:43 Heading: 321º
13:43 Flight Duration: 00:48
13:43 Landing Weight: 117620 Lbs
13:43 POS N40º 29´ 09´´ W003º 32´ 56´´
13:45 Parking brakes on
13:45 Block to Block Duration: 00:56
13:45 Final Fuel: 5932 Lbls
13:45 Spent Fuel: 40011 Lbls
13:45 Flight Length: 326 NM
13:45 TOD Land Length: 109 NM

Exportar CSV

Powered by Drupal - Modified by Danger4k